sensor_id;sensor_type;location;lat;lon;timestamp;P1;durP1;ratioP1;P2;durP2;ratioP2
60700;SDS011;46541;49.894;10.886;2023-06-22T00:01:18;14.57;;;12.32;;
60700;SDS011;46541;49.894;10.886;2023-06-22T00:03:46;16.35;;;11.50;;
60700;SDS011;46541;49.894;10.886;2023-06-22T00:06:13;15.63;;;12.18;;
60700;SDS011;46541;49.894;10.886;2023-06-22T00:08:40;15.07;;;12.30;;
60700;SDS011;46541;49.894;10.886;2023-06-22T00:11:06;16.20;;;12.77;;
60700;SDS011;46541;49.894;10.886;2023-06-22T00:13:33;16.02;;;12.15;;
60700;SDS011;46541;49.894;10.886;2023-06-22T00:16:00;13.82;;;12.43;;
60700;SDS011;46541;49.894;10.886;2023-06-22T00:18:27;15.73;;;12.20;;
60700;SDS011;46541;49.894;10.886;2023-06-22T00:20:55;17.15;;;13.00;;
60700;SDS011;46541;49.894;10.886;2023-06-22T00:23:25;13.35;;;12.05;;
60700;SDS011;46541;49.894;10.886;2023-06-22T00:25:52;15.98;;;12.35;;
60700;SDS011;46541;49.894;10.886;2023-06-22T00:28:19;15.52;;;12.85;;
60700;SDS011;46541;49.894;10.886;2023-06-22T00:30:47;14.63;;;12.32;;
60700;SDS011;46541;49.894;10.886;2023-06-22T00:33:15;14.93;;;12.93;;
60700;SDS011;46541;49.894;10.886;2023-06-22T00:35:42;14.75;;;12.30;;
60700;SDS011;46541;49.894;10.886;2023-06-22T00:38:10;15.82;;;13.88;;
60700;SDS011;46541;49.894;10.886;2023-06-22T00:40:37;17.38;;;12.80;;
60700;SDS011;46541;49.894;10.886;2023-06-22T00:43:04;17.48;;;13.35;;
60700;SDS011;46541;49.894;10.886;2023-06-22T00:45:31;16.30;;;13.00;;
60700;SDS011;46541;49.894;10.886;2023-06-22T00:47:58;16.13;;;13.88;;
60700;SDS011;46541;49.894;10.886;2023-06-22T00:50:30;15.27;;;13.68;;
60700;SDS011;46541;49.894;10.886;2023-06-22T00:53:05;14.70;;;12.30;;
60700;SDS011;46541;49.894;10.886;2023-06-22T00:55:35;18.50;;;12.88;;
60700;SDS011;46541;49.894;10.886;2023-06-22T00:58:13;20.05;;;13.15;;
60700;SDS011;46541;49.894;10.886;2023-06-22T01:00:40;18.58;;;13.25;;
60700;SDS011;46541;49.894;10.886;2023-06-22T01:03:08;17.65;;;14.65;;
60700;SDS011;46541;49.894;10.886;2023-06-22T01:05:37;20.42;;;14.52;;
60700;SDS011;46541;49.894;10.886;2023-06-22T01:08:23;15.95;;;13.90;;
60700;SDS011;46541;49.894;10.886;2023-06-22T01:11:24;15.75;;;13.38;;
60700;SDS011;46541;49.894;10.886;2023-06-22T01:14:12;14.07;;;12.65;;
60700;SDS011;46541;49.894;10.886;2023-06-22T01:16:44;15.38;;;13.45;;
60700;SDS011;46541;49.894;10.886;2023-06-22T01:22:03;15.00;;;13.40;;
60700;SDS011;46541;49.894;10.886;2023-06-22T01:30:03;13.88;;;12.48;;
60700;SDS011;46541;49.894;10.886;2023-06-22T01:32:33;17.70;;;14.07;;
60700;SDS011;46541;49.894;10.886;2023-06-22T01:35:03;14.80;;;13.20;;
60700;SDS011;46541;49.894;10.886;2023-06-22T01:37:32;16.45;;;13.40;;
60700;SDS011;46541;49.894;10.886;2023-06-22T01:40:00;17.92;;;14.30;;
60700;SDS011;46541;49.894;10.886;2023-06-22T01:42:30;16.20;;;12.95;;
60700;SDS011;46541;49.894;10.886;2023-06-22T01:44:58;20.85;;;13.95;;
60700;SDS011;46541;49.894;10.886;2023-06-22T01:47:26;15.30;;;13.25;;
60700;SDS011;46541;49.894;10.886;2023-06-22T01:49:54;18.27;;;13.77;;
60700;SDS011;46541;49.894;10.886;2023-06-22T01:52:21;16.98;;;13.93;;
60700;SDS011;46541;49.894;10.886;2023-06-22T01:54:48;17.45;;;14.57;;
60700;SDS011;46541;49.894;10.886;2023-06-22T01:57:15;17.60;;;13.82;;
60700;SDS011;46541;49.894;10.886;2023-06-22T02:02:36;18.45;;;13.55;;
60700;SDS011;46541;49.894;10.886;2023-06-22T02:05:07;14.00;;;12.50;;
60700;SDS011;46541;49.894;10.886;2023-06-22T02:07:44;16.48;;;13.65;;
60700;SDS011;46541;49.894;10.886;2023-06-22T02:10:22;16.75;;;13.32;;
60700;SDS011;46541;49.894;10.886;2023-06-22T02:12:50;14.60;;;13.10;;
60700;SDS011;46541;49.894;10.886;2023-06-22T02:15:18;14.23;;;12.75;;
60700;SDS011;46541;49.894;10.886;2023-06-22T02:17:47;17.60;;;12.25;;
60700;SDS011;46541;49.894;10.886;2023-06-22T02:20:14;16.20;;;12.75;;
60700;SDS011;46541;49.894;10.886;2023-06-22T02:22:41;19.05;;;12.98;;
60700;SDS011;46541;49.894;10.886;2023-06-22T02:25:08;14.35;;;12.75;;
60700;SDS011;46541;49.894;10.886;2023-06-22T02:27:35;25.10;;;13.40;;
60700;SDS011;46541;49.894;10.886;2023-06-22T02:30:02;16.90;;;13.25;;
60700;SDS011;46541;49.894;10.886;2023-06-22T02:32:29;17.73;;;13.05;;
60700;SDS011;46541;49.894;10.886;2023-06-22T02:34:56;18.05;;;13.57;;
60700;SDS011;46541;49.894;10.886;2023-06-22T02:37:23;19.17;;;14.48;;
60700;SDS011;46541;49.894;10.886;2023-06-22T02:39:51;22.23;;;15.50;;
60700;SDS011;46541;49.894;10.886;2023-06-22T02:42:18;18.08;;;13.48;;
60700;SDS011;46541;49.894;10.886;2023-06-22T02:44:47;17.55;;;13.65;;
60700;SDS011;46541;49.894;10.886;2023-06-22T02:47:14;16.95;;;14.50;;
60700;SDS011;46541;49.894;10.886;2023-06-22T02:49:41;16.77;;;14.30;;
60700;SDS011;46541;49.894;10.886;2023-06-22T02:52:11;21.40;;;14.98;;
60700;SDS011;46541;49.894;10.886;2023-06-22T02:54:37;17.13;;;14.02;;
60700;SDS011;46541;49.894;10.886;2023-06-22T02:57:04;17.00;;;13.55;;
60700;SDS011;46541;49.894;10.886;2023-06-22T02:59:31;17.73;;;13.85;;
60700;SDS011;46541;49.894;10.886;2023-06-22T03:01:59;17.70;;;14.55;;
60700;SDS011;46541;49.894;10.886;2023-06-22T03:04:26;18.92;;;14.07;;
60700;SDS011;46541;49.894;10.886;2023-06-22T03:06:53;18.63;;;14.70;;
60700;SDS011;46541;49.894;10.886;2023-06-22T03:09:20;21.25;;;15.85;;
60700;SDS011;46541;49.894;10.886;2023-06-22T03:11:47;20.00;;;15.95;;
60700;SDS011;46541;49.894;10.886;2023-06-22T03:14:13;20.27;;;15.98;;
60700;SDS011;46541;49.894;10.886;2023-06-22T03:16:40;22.92;;;15.93;;
60700;SDS011;46541;49.894;10.886;2023-06-22T03:19:07;22.45;;;16.88;;
60700;SDS011;46541;49.894;10.886;2023-06-22T03:21:34;21.33;;;16.48;;
60700;SDS011;46541;49.894;10.886;2023-06-22T03:24:01;23.90;;;17.23;;
60700;SDS011;46541;49.894;10.886;2023-06-22T03:26:27;17.58;;;15.68;;
60700;SDS011;46541;49.894;10.886;2023-06-22T03:28:56;17.45;;;15.60;;
60700;SDS011;46541;49.894;10.886;2023-06-22T03:31:22;20.00;;;15.27;;
60700;SDS011;46541;49.894;10.886;2023-06-22T03:33:50;19.08;;;16.25;;
60700;SDS011;46541;49.894;10.886;2023-06-22T03:36:17;21.90;;;16.15;;
60700;SDS011;46541;49.894;10.886;2023-06-22T03:38:47;18.83;;;16.67;;
60700;SDS011;46541;49.894;10.886;2023-06-22T03:41:15;21.50;;;16.23;;
60700;SDS011;46541;49.894;10.886;2023-06-22T03:43:42;19.55;;;15.07;;
60700;SDS011;46541;49.894;10.886;2023-06-22T03:46:09;19.15;;;15.57;;
60700;SDS011;46541;49.894;10.886;2023-06-22T03:48:36;18.95;;;15.50;;
60700;SDS011;46541;49.894;10.886;2023-06-22T03:51:02;18.20;;;15.07;;
60700;SDS011;46541;49.894;10.886;2023-06-22T03:53:29;21.30;;;16.83;;
60700;SDS011;46541;49.894;10.886;2023-06-22T03:55:56;19.90;;;16.60;;
60700;SDS011;46541;49.894;10.886;2023-06-22T03:58:23;18.92;;;15.02;;
60700;SDS011;46541;49.894;10.886;2023-06-22T04:00:50;20.67;;;15.85;;
60700;SDS011;46541;49.894;10.886;2023-06-22T04:03:18;17.88;;;15.70;;
60700;SDS011;46541;49.894;10.886;2023-06-22T04:05:46;19.48;;;15.95;;
60700;SDS011;46541;49.894;10.886;2023-06-22T04:08:14;16.65;;;14.85;;
60700;SDS011;46541;49.894;10.886;2023-06-22T04:10:41;17.23;;;14.65;;
60700;SDS011;46541;49.894;10.886;2023-06-22T04:13:08;18.75;;;14.43;;
60700;SDS011;46541;49.894;10.886;2023-06-22T04:15:35;21.35;;;15.10;;
60700;SDS011;46541;49.894;10.886;2023-06-22T04:18:02;19.48;;;15.20;;
60700;SDS011;46541;49.894;10.886;2023-06-22T04:20:30;17.33;;;14.85;;
60700;SDS011;46541;49.894;10.886;2023-06-22T04:22:58;20.48;;;13.40;;
60700;SDS011;46541;49.894;10.886;2023-06-22T04:25:25;16.48;;;14.48;;
60700;SDS011;46541;49.894;10.886;2023-06-22T04:27:52;18.00;;;14.90;;
60700;SDS011;46541;49.894;10.886;2023-06-22T04:30:19;16.65;;;14.73;;
60700;SDS011;46541;49.894;10.886;2023-06-22T04:32:46;18.75;;;14.73;;
60700;SDS011;46541;49.894;10.886;2023-06-22T04:35:22;16.10;;;14.38;;
60700;SDS011;46541;49.894;10.886;2023-06-22T04:37:49;19.38;;;13.77;;
60700;SDS011;46541;49.894;10.886;2023-06-22T04:40:16;16.70;;;14.55;;
60700;SDS011;46541;49.894;10.886;2023-06-22T04:42:43;15.65;;;13.95;;
60700;SDS011;46541;49.894;10.886;2023-06-22T04:45:18;16.00;;;14.40;;
60700;SDS011;46541;49.894;10.886;2023-06-22T04:47:45;15.98;;;14.07;;
60700;SDS011;46541;49.894;10.886;2023-06-22T04:50:13;20.17;;;15.50;;
60700;SDS011;46541;49.894;10.886;2023-06-22T04:52:40;19.42;;;14.93;;
60700;SDS011;46541;49.894;10.886;2023-06-22T04:55:07;16.33;;;12.77;;
60700;SDS011;46541;49.894;10.886;2023-06-22T04:57:35;17.52;;;13.23;;
60700;SDS011;46541;49.894;10.886;2023-06-22T05:00:03;14.18;;;12.68;;
60700;SDS011;46541;49.894;10.886;2023-06-22T05:02:40;16.10;;;12.57;;
60700;SDS011;46541;49.894;10.886;2023-06-22T05:05:07;17.55;;;13.82;;
60700;SDS011;46541;49.894;10.886;2023-06-22T05:07:35;14.55;;;13.00;;
60700;SDS011;46541;49.894;10.886;2023-06-22T05:10:02;13.50;;;12.10;;
60700;SDS011;46541;49.894;10.886;2023-06-22T05:12:29;13.57;;;12.18;;
60700;SDS011;46541;49.894;10.886;2023-06-22T05:14:57;17.67;;;14.95;;
60700;SDS011;46541;49.894;10.886;2023-06-22T05:17:24;14.43;;;12.93;;
60700;SDS011;46541;49.894;10.886;2023-06-22T05:19:51;16.02;;;13.35;;
60700;SDS011;46541;49.894;10.886;2023-06-22T05:22:18;14.18;;;12.68;;
60700;SDS011;46541;49.894;10.886;2023-06-22T05:24:45;14.40;;;12.55;;
60700;SDS011;46541;49.894;10.886;2023-06-22T05:27:12;18.42;;;13.00;;
60700;SDS011;46541;49.894;10.886;2023-06-22T05:29:40;14.38;;;12.88;;
60700;SDS011;46541;49.894;10.886;2023-06-22T05:32:08;13.98;;;12.52;;
60700;SDS011;46541;49.894;10.886;2023-06-22T05:34:36;17.60;;;13.15;;
60700;SDS011;46541;49.894;10.886;2023-06-22T05:37:03;13.57;;;12.07;;
60700;SDS011;46541;49.894;10.886;2023-06-22T05:39:30;15.77;;;11.85;;
60700;SDS011;46541;49.894;10.886;2023-06-22T05:41:57;15.15;;;12.88;;
60700;SDS011;46541;49.894;10.886;2023-06-22T05:44:23;14.32;;;12.88;;
60700;SDS011;46541;49.894;10.886;2023-06-22T05:46:50;17.48;;;12.27;;
60700;SDS011;46541;49.894;10.886;2023-06-22T05:49:17;15.30;;;12.98;;
60700;SDS011;46541;49.894;10.886;2023-06-22T05:51:44;14.68;;;12.65;;
60700;SDS011;46541;49.894;10.886;2023-06-22T05:54:10;15.77;;;13.48;;
60700;SDS011;46541;49.894;10.886;2023-06-22T05:56:39;19.75;;;14.60;;
60700;SDS011;46541;49.894;10.886;2023-06-22T05:59:06;20.20;;;14.90;;
60700;SDS011;46541;49.894;10.886;2023-06-22T06:01:33;18.50;;;15.25;;
60700;SDS011;46541;49.894;10.886;2023-06-22T06:04:02;18.67;;;14.32;;
60700;SDS011;46541;49.894;10.886;2023-06-22T06:06:30;18.02;;;15.75;;
60700;SDS011;46541;49.894;10.886;2023-06-22T06:08:57;20.73;;;14.77;;
60700;SDS011;46541;49.894;10.886;2023-06-22T06:11:25;22.45;;;14.30;;
60700;SDS011;46541;49.894;10.886;2023-06-22T06:13:52;16.40;;;14.05;;
60700;SDS011;46541;49.894;10.886;2023-06-22T06:16:19;18.50;;;14.02;;
60700;SDS011;46541;49.894;10.886;2023-06-22T06:18:46;20.52;;;14.98;;
60700;SDS011;46541;49.894;10.886;2023-06-22T06:21:14;19.85;;;14.98;;
60700;SDS011;46541;49.894;10.886;2023-06-22T06:23:41;15.60;;;12.65;;
60700;SDS011;46541;49.894;10.886;2023-06-22T06:26:08;15.80;;;12.68;;
60700;SDS011;46541;49.894;10.886;2023-06-22T06:28:35;12.68;;;11.38;;
60700;SDS011;46541;49.894;10.886;2023-06-22T06:31:02;16.10;;;13.65;;
60700;SDS011;46541;49.894;10.886;2023-06-22T06:33:33;15.23;;;11.82;;
60700;SDS011;46541;49.894;10.886;2023-06-22T06:36:00;15.57;;;11.38;;
60700;SDS011;46541;49.894;10.886;2023-06-22T06:38:30;14.63;;;11.02;;
60700;SDS011;46541;49.894;10.886;2023-06-22T06:40:57;16.33;;;10.80;;
60700;SDS011;46541;49.894;10.886;2023-06-22T06:43:25;11.68;;;10.10;;
60700;SDS011;46541;49.894;10.886;2023-06-22T06:45:52;12.95;;;9.32;;
60700;SDS011;46541;49.894;10.886;2023-06-22T06:48:19;13.65;;;9.63;;
60700;SDS011;46541;49.894;10.886;2023-06-22T06:50:47;12.38;;;9.13;;
60700;SDS011;46541;49.894;10.886;2023-06-22T06:53:14;9.27;;;8.02;;
60700;SDS011;46541;49.894;10.886;2023-06-22T06:55:41;9.73;;;8.00;;
60700;SDS011;46541;49.894;10.886;2023-06-22T06:58:08;11.15;;;8.88;;
60700;SDS011;46541;49.894;10.886;2023-06-22T07:00:36;9.88;;;7.68;;
60700;SDS011;46541;49.894;10.886;2023-06-22T07:03:03;10.60;;;7.85;;
60700;SDS011;46541;49.894;10.886;2023-06-22T07:05:30;9.35;;;7.72;;
60700;SDS011;46541;49.894;10.886;2023-06-22T07:07:57;9.73;;;7.63;;
60700;SDS011;46541;49.894;10.886;2023-06-22T07:10:24;13.30;;;10.07;;
60700;SDS011;46541;49.894;10.886;2023-06-22T07:12:51;9.60;;;7.53;;
60700;SDS011;46541;49.894;10.886;2023-06-22T07:15:17;8.40;;;7.50;;
60700;SDS011;46541;49.894;10.886;2023-06-22T07:17:44;8.55;;;7.65;;
60700;SDS011;46541;49.894;10.886;2023-06-22T07:20:11;8.55;;;7.68;;
60700;SDS011;46541;49.894;10.886;2023-06-22T07:22:39;8.43;;;7.47;;
60700;SDS011;46541;49.894;10.886;2023-06-22T07:25:07;8.48;;;6.97;;
60700;SDS011;46541;49.894;10.886;2023-06-22T07:27:38;9.27;;;7.57;;
60700;SDS011;46541;49.894;10.886;2023-06-22T07:30:09;9.20;;;7.20;;
60700;SDS011;46541;49.894;10.886;2023-06-22T07:32:37;7.88;;;6.97;;
60700;SDS011;46541;49.894;10.886;2023-06-22T07:35:04;9.73;;;7.28;;
60700;SDS011;46541;49.894;10.886;2023-06-22T07:37:31;11.75;;;6.88;;
60700;SDS011;46541;49.894;10.886;2023-06-22T07:40:00;8.93;;;6.95;;
60700;SDS011;46541;49.894;10.886;2023-06-22T07:42:27;10.43;;;7.20;;
60700;SDS011;46541;49.894;10.886;2023-06-22T07:44:59;9.80;;;7.68;;
60700;SDS011;46541;49.894;10.886;2023-06-22T07:47:26;11.55;;;6.70;;
60700;SDS011;46541;49.894;10.886;2023-06-22T07:49:54;7.88;;;5.88;;
60700;SDS011;46541;49.894;10.886;2023-06-22T07:52:24;11.00;;;6.75;;
60700;SDS011;46541;49.894;10.886;2023-06-22T07:54:54;9.45;;;6.97;;
60700;SDS011;46541;49.894;10.886;2023-06-22T07:57:20;10.27;;;7.00;;
60700;SDS011;46541;49.894;10.886;2023-06-22T07:59:47;10.52;;;7.00;;
60700;SDS011;46541;49.894;10.886;2023-06-22T08:02:14;20.20;;;15.70;;
60700;SDS011;46541;49.894;10.886;2023-06-22T08:04:41;7.95;;;6.38;;
60700;SDS011;46541;49.894;10.886;2023-06-22T08:07:08;7.47;;;6.22;;
60700;SDS011;46541;49.894;10.886;2023-06-22T08:09:35;6.90;;;6.20;;
60700;SDS011;46541;49.894;10.886;2023-06-22T08:12:03;9.23;;;6.25;;
60700;SDS011;46541;49.894;10.886;2023-06-22T08:14:30;8.13;;;7.32;;
60700;SDS011;46541;49.894;10.886;2023-06-22T08:16:57;9.73;;;6.50;;
60700;SDS011;46541;49.894;10.886;2023-06-22T08:19:23;9.73;;;6.70;;
60700;SDS011;46541;49.894;10.886;2023-06-22T08:21:50;10.48;;;6.97;;
60700;SDS011;46541;49.894;10.886;2023-06-22T08:24:17;7.68;;;6.80;;
60700;SDS011;46541;49.894;10.886;2023-06-22T08:26:43;7.50;;;6.55;;
60700;SDS011;46541;49.894;10.886;2023-06-22T08:29:11;7.22;;;6.47;;
60700;SDS011;46541;49.894;10.886;2023-06-22T08:31:37;7.68;;;6.35;;
60700;SDS011;46541;49.894;10.886;2023-06-22T08:34:04;10.23;;;8.23;;
60700;SDS011;46541;49.894;10.886;2023-06-22T08:36:31;12.23;;;8.77;;
60700;SDS011;46541;49.894;10.886;2023-06-22T08:39:03;8.50;;;7.10;;
60700;SDS011;46541;49.894;10.886;2023-06-22T08:41:30;10.88;;;7.80;;
60700;SDS011;46541;49.894;10.886;2023-06-22T08:43:57;10.95;;;7.47;;
60700;SDS011;46541;49.894;10.886;2023-06-22T08:46:24;10.35;;;8.23;;
60700;SDS011;46541;49.894;10.886;2023-06-22T08:48:56;8.30;;;5.93;;
60700;SDS011;46541;49.894;10.886;2023-06-22T08:51:27;9.55;;;6.90;;
60700;SDS011;46541;49.894;10.886;2023-06-22T08:53:54;9.85;;;5.63;;
60700;SDS011;46541;49.894;10.886;2023-06-22T08:56:20;9.48;;;6.05;;
60700;SDS011;46541;49.894;10.886;2023-06-22T08:58:47;8.30;;;6.13;;
60700;SDS011;46541;49.894;10.886;2023-06-22T09:01:14;11.00;;;8.90;;
60700;SDS011;46541;49.894;10.886;2023-06-22T09:03:41;8.98;;;6.32;;
60700;SDS011;46541;49.894;10.886;2023-06-22T09:06:09;10.60;;;6.07;;
60700;SDS011;46541;49.894;10.886;2023-06-22T09:08:36;9.43;;;6.88;;
60700;SDS011;46541;49.894;10.886;2023-06-22T09:11:03;8.20;;;6.13;;
60700;SDS011;46541;49.894;10.886;2023-06-22T09:13:30;7.57;;;5.55;;
60700;SDS011;46541;49.894;10.886;2023-06-22T09:15:58;6.82;;;5.68;;
60700;SDS011;46541;49.894;10.886;2023-06-22T09:18:25;10.68;;;6.07;;
60700;SDS011;46541;49.894;10.886;2023-06-22T09:20:52;9.43;;;5.88;;
60700;SDS011;46541;49.894;10.886;2023-06-22T09:23:18;6.85;;;5.55;;
60700;SDS011;46541;49.894;10.886;2023-06-22T09:25:45;8.23;;;6.43;;
60700;SDS011;46541;49.894;10.886;2023-06-22T09:28:14;7.85;;;5.93;;
60700;SDS011;46541;49.894;10.886;2023-06-22T09:30:42;10.73;;;6.07;;
60700;SDS011;46541;49.894;10.886;2023-06-22T09:33:11;5.85;;;5.25;;
60700;SDS011;46541;49.894;10.886;2023-06-22T09:35:38;6.50;;;5.00;;
60700;SDS011;46541;49.894;10.886;2023-06-22T09:38:04;7.38;;;5.30;;
60700;SDS011;46541;49.894;10.886;2023-06-22T09:40:31;7.47;;;4.95;;
60700;SDS011;46541;49.894;10.886;2023-06-22T09:43:01;6.13;;;5.40;;
60700;SDS011;46541;49.894;10.886;2023-06-22T09:45:28;5.18;;;4.68;;
60700;SDS011;46541;49.894;10.886;2023-06-22T09:47:55;9.57;;;5.10;;
60700;SDS011;46541;49.894;10.886;2023-06-22T09:50:22;6.60;;;4.55;;
60700;SDS011;46541;49.894;10.886;2023-06-22T09:52:48;11.40;;;5.30;;
60700;SDS011;46541;49.894;10.886;2023-06-22T09:55:21;6.28;;;5.25;;
60700;SDS011;46541;49.894;10.886;2023-06-22T09:57:48;8.85;;;5.32;;
60700;SDS011;46541;49.894;10.886;2023-06-22T10:00:16;6.45;;;5.25;;
60700;SDS011;46541;49.894;10.886;2023-06-22T10:02:43;7.07;;;4.65;;
60700;SDS011;46541;49.894;10.886;2023-06-22T10:05:11;7.15;;;4.95;;
60700;SDS011;46541;49.894;10.886;2023-06-22T10:07:38;8.73;;;4.68;;
60700;SDS011;46541;49.894;10.886;2023-06-22T10:10:09;7.03;;;5.43;;
60700;SDS011;46541;49.894;10.886;2023-06-22T10:12:40;5.70;;;4.75;;
60700;SDS011;46541;49.894;10.886;2023-06-22T10:15:09;6.45;;;4.95;;
60700;SDS011;46541;49.894;10.886;2023-06-22T10:17:37;6.07;;;4.53;;
60700;SDS011;46541;49.894;10.886;2023-06-22T10:20:05;7.88;;;5.72;;
60700;SDS011;46541;49.894;10.886;2023-06-22T10:22:39;6.18;;;4.80;;
60700;SDS011;46541;49.894;10.886;2023-06-22T10:25:10;7.03;;;4.72;;
60700;SDS011;46541;49.894;10.886;2023-06-22T10:27:37;6.95;;;4.50;;
60700;SDS011;46541;49.894;10.886;2023-06-22T10:30:07;6.88;;;4.35;;
60700;SDS011;46541;49.894;10.886;2023-06-22T10:32:35;7.22;;;4.93;;
60700;SDS011;46541;49.894;10.886;2023-06-22T10:35:03;6.65;;;5.10;;
60700;SDS011;46541;49.894;10.886;2023-06-22T10:37:30;8.70;;;4.90;;
60700;SDS011;46541;49.894;10.886;2023-06-22T10:39:57;6.82;;;4.68;;
60700;SDS011;46541;49.894;10.886;2023-06-22T10:42:24;6.07;;;4.57;;
60700;SDS011;46541;49.894;10.886;2023-06-22T10:44:51;5.72;;;4.20;;
60700;SDS011;46541;49.894;10.886;2023-06-22T10:47:17;6.90;;;4.60;;
60700;SDS011;46541;49.894;10.886;2023-06-22T10:49:44;6.15;;;4.70;;
60700;SDS011;46541;49.894;10.886;2023-06-22T10:52:11;10.55;;;5.55;;
60700;SDS011;46541;49.894;10.886;2023-06-22T10:54:38;4.88;;;4.35;;
60700;SDS011;46541;49.894;10.886;2023-06-22T10:57:05;11.55;;;4.95;;
60700;SDS011;46541;49.894;10.886;2023-06-22T10:59:32;6.43;;;4.85;;
60700;SDS011;46541;49.894;10.886;2023-06-22T11:01:58;8.25;;;5.05;;
60700;SDS011;46541;49.894;10.886;2023-06-22T11:04:25;9.13;;;5.13;;
60700;SDS011;46541;49.894;10.886;2023-06-22T11:06:52;7.10;;;5.57;;
60700;SDS011;46541;49.894;10.886;2023-06-22T11:09:19;6.32;;;5.15;;
60700;SDS011;46541;49.894;10.886;2023-06-22T11:11:55;6.05;;;5.15;;
60700;SDS011;46541;49.894;10.886;2023-06-22T11:14:22;7.00;;;4.70;;
60700;SDS011;46541;49.894;10.886;2023-06-22T11:16:49;9.48;;;4.80;;
60700;SDS011;46541;49.894;10.886;2023-06-22T11:19:16;7.70;;;4.97;;
60700;SDS011;46541;49.894;10.886;2023-06-22T11:21:44;6.70;;;4.50;;
60700;SDS011;46541;49.894;10.886;2023-06-22T11:24:11;5.55;;;4.88;;
60700;SDS011;46541;49.894;10.886;2023-06-22T11:26:38;9.27;;;4.82;;
60700;SDS011;46541;49.894;10.886;2023-06-22T11:29:04;5.78;;;4.75;;
60700;SDS011;46541;49.894;10.886;2023-06-22T11:31:34;7.72;;;4.90;;
60700;SDS011;46541;49.894;10.886;2023-06-22T11:34:02;6.65;;;4.88;;
60700;SDS011;46541;49.894;10.886;2023-06-22T11:36:29;7.03;;;5.10;;
60700;SDS011;46541;49.894;10.886;2023-06-22T11:38:59;6.22;;;4.63;;
60700;SDS011;46541;49.894;10.886;2023-06-22T11:41:26;9.23;;;5.35;;
60700;SDS011;46541;49.894;10.886;2023-06-22T11:43:52;8.65;;;4.95;;
60700;SDS011;46541;49.894;10.886;2023-06-22T11:46:19;8.75;;;5.20;;
60700;SDS011;46541;49.894;10.886;2023-06-22T11:48:46;9.80;;;5.32;;
60700;SDS011;46541;49.894;10.886;2023-06-22T11:51:13;8.50;;;5.18;;
60700;SDS011;46541;49.894;10.886;2023-06-22T11:53:40;6.85;;;4.53;;
60700;SDS011;46541;49.894;10.886;2023-06-22T11:56:06;11.43;;;6.03;;
60700;SDS011;46541;49.894;10.886;2023-06-22T11:58:35;7.68;;;5.32;;
60700;SDS011;46541;49.894;10.886;2023-06-22T12:01:02;9.52;;;5.35;;
60700;SDS011;46541;49.894;10.886;2023-06-22T12:03:29;8.80;;;5.55;;
60700;SDS011;46541;49.894;10.886;2023-06-22T12:05:56;10.48;;;4.85;;
60700;SDS011;46541;49.894;10.886;2023-06-22T12:08:23;9.70;;;5.07;;
60700;SDS011;46541;49.894;10.886;2023-06-22T12:10:50;6.70;;;4.93;;
60700;SDS011;46541;49.894;10.886;2023-06-22T12:13:18;7.05;;;4.80;;
60700;SDS011;46541;49.894;10.886;2023-06-22T12:15:44;8.05;;;4.97;;
60700;SDS011;46541;49.894;10.886;2023-06-22T12:18:11;10.05;;;5.63;;
60700;SDS011;46541;49.894;10.886;2023-06-22T12:20:40;9.32;;;5.85;;
60700;SDS011;46541;49.894;10.886;2023-06-22T12:23:07;10.00;;;6.25;;
60700;SDS011;46541;49.894;10.886;2023-06-22T12:25:34;10.77;;;6.28;;
60700;SDS011;46541;49.894;10.886;2023-06-22T12:28:01;9.23;;;6.47;;
60700;SDS011;46541;49.894;10.886;2023-06-22T12:30:27;13.63;;;5.90;;
60700;SDS011;46541;49.894;10.886;2023-06-22T12:32:55;9.85;;;5.32;;
60700;SDS011;46541;49.894;10.886;2023-06-22T12:35:22;10.05;;;5.97;;
60700;SDS011;46541;49.894;10.886;2023-06-22T12:37:48;9.02;;;5.60;;
60700;SDS011;46541;49.894;10.886;2023-06-22T12:40:15;10.65;;;5.45;;
60700;SDS011;46541;49.894;10.886;2023-06-22T12:42:42;12.10;;;5.78;;
60700;SDS011;46541;49.894;10.886;2023-06-22T12:45:11;8.25;;;5.50;;
60700;SDS011;46541;49.894;10.886;2023-06-22T12:47:37;9.75;;;6.25;;
60700;SDS011;46541;49.894;10.886;2023-06-22T12:50:04;14.52;;;5.80;;
60700;SDS011;46541;49.894;10.886;2023-06-22T12:52:32;10.23;;;5.80;;
60700;SDS011;46541;49.894;10.886;2023-06-22T12:54:58;13.32;;;6.20;;
60700;SDS011;46541;49.894;10.886;2023-06-22T12:57:25;11.05;;;5.82;;
60700;SDS011;46541;49.894;10.886;2023-06-22T12:59:52;8.82;;;5.75;;
60700;SDS011;46541;49.894;10.886;2023-06-22T13:02:19;12.52;;;8.10;;
60700;SDS011;46541;49.894;10.886;2023-06-22T13:04:46;10.63;;;5.57;;
60700;SDS011;46541;49.894;10.886;2023-06-22T13:07:12;15.45;;;5.93;;
60700;SDS011;46541;49.894;10.886;2023-06-22T13:09:49;8.70;;;5.53;;
60700;SDS011;46541;49.894;10.886;2023-06-22T13:12:19;12.95;;;6.13;;
60700;SDS011;46541;49.894;10.886;2023-06-22T13:14:47;12.52;;;5.40;;
60700;SDS011;46541;49.894;10.886;2023-06-22T13:17:14;12.50;;;5.97;;
60700;SDS011;46541;49.894;10.886;2023-06-22T13:19:41;12.05;;;5.57;;
60700;SDS011;46541;49.894;10.886;2023-06-22T13:22:26;10.38;;;6.13;;
60700;SDS011;46541;49.894;10.886;2023-06-22T13:24:56;18.58;;;5.90;;
60700;SDS011;46541;49.894;10.886;2023-06-22T13:27:23;10.57;;;6.43;;
60700;SDS011;46541;49.894;10.886;2023-06-22T13:29:50;8.82;;;5.93;;
60700;SDS011;46541;49.894;10.886;2023-06-22T13:32:17;14.05;;;6.15;;
60700;SDS011;46541;49.894;10.886;2023-06-22T13:34:44;14.98;;;6.07;;
60700;SDS011;46541;49.894;10.886;2023-06-22T13:37:11;10.10;;;5.28;;
60700;SDS011;46541;49.894;10.886;2023-06-22T13:39:38;14.60;;;6.28;;
60700;SDS011;46541;49.894;10.886;2023-06-22T13:42:05;9.10;;;6.22;;
60700;SDS011;46541;49.894;10.886;2023-06-22T13:44:32;12.07;;;6.30;;
60700;SDS011;46541;49.894;10.886;2023-06-22T13:46:59;14.52;;;6.80;;
60700;SDS011;46541;49.894;10.886;2023-06-22T13:49:26;11.02;;;6.25;;
60700;SDS011;46541;49.894;10.886;2023-06-22T13:51:53;14.07;;;6.63;;
60700;SDS011;46541;49.894;10.886;2023-06-22T13:54:19;13.93;;;7.35;;
60700;SDS011;46541;49.894;10.886;2023-06-22T13:56:49;12.63;;;7.28;;
60700;SDS011;46541;49.894;10.886;2023-06-22T13:59:16;14.05;;;7.38;;
60700;SDS011;46541;49.894;10.886;2023-06-22T14:01:42;19.40;;;8.52;;
60700;SDS011;46541;49.894;10.886;2023-06-22T14:04:10;18.27;;;8.32;;
60700;SDS011;46541;49.894;10.886;2023-06-22T14:06:37;17.83;;;6.55;;
60700;SDS011;46541;49.894;10.886;2023-06-22T14:09:04;11.57;;;6.88;;
60700;SDS011;46541;49.894;10.886;2023-06-22T14:11:31;15.68;;;6.18;;
60700;SDS011;46541;49.894;10.886;2023-06-22T14:13:58;16.23;;;11.18;;
60700;SDS011;46541;49.894;10.886;2023-06-22T14:16:24;15.02;;;6.72;;
60700;SDS011;46541;49.894;10.886;2023-06-22T14:18:51;13.13;;;7.13;;
60700;SDS011;46541;49.894;10.886;2023-06-22T14:21:21;16.10;;;6.10;;
60700;SDS011;46541;49.894;10.886;2023-06-22T14:23:48;13.98;;;5.82;;
60700;SDS011;46541;49.894;10.886;2023-06-22T14:26:15;10.43;;;5.68;;
60700;SDS011;46541;49.894;10.886;2023-06-22T14:28:46;16.38;;;6.07;;
60700;SDS011;46541;49.894;10.886;2023-06-22T14:31:16;16.08;;;6.10;;
60700;SDS011;46541;49.894;10.886;2023-06-22T14:33:47;11.05;;;5.40;;
60700;SDS011;46541;49.894;10.886;2023-06-22T14:36:15;12.05;;;6.40;;